Arlington, SD (57212)

2:31 AM CST on February 12, 2016 (GMT -0600)
Arlington, SD | | Change Station
CLOSE
Current Station
Personal Weather Station
Location: Arlington, SD
Elevation: 1808 ft
Nearby Weather Stations

Elev 1808 ft 44.38 °N, 97.08 °W | Updated 10 seconds ago

Overcast
Overcast
13.1 °F
Feels Like 13 °F
N
1.0
Wind Variable Wind from North
Gusts 5.0 mph

Today
High -- | Low -- °F
--% Chance of Precip.
Yesterday
High -- | Low -- °F
Precip. -- in
Pressure 30.25 in
Visibility 9.0 miles
Clouds Mostly Cloudy 1200 ft
Mostly Cloudy 1800 ft
Windchill 13 °F
Dew Point 11 °F
Humidity 90%
Rainfall 0.00 in
Snow Depth Not available.
7:33 AM 5:52 PM
Waxing Crescent, 18% visible
SPECI KBKX 120822Z AUTO 33008KT 9SM BKN012 BKN018 M10/M11 A3025 RMK AO2 SNE17 P0000 FZRANO
Pressure 30.25 in
Visibility 9.0 miles
Clouds Mostly Cloudy 1200 ft
Mostly Cloudy 1800 ft
Windchill 13 °F
Dew Point 11 °F
Humidity 90%
Rainfall 0.00 in
Snow Depth Not available.
7:33 AM 5:52 PM
Waxing Crescent, 18% visible
SPECI KBKX 120822Z AUTO 33008KT 9SM BKN012 BKN018 M10/M11 A3025 RMK AO2 SNE17 P0000 FZRANO

10-Day Weather Forecast

Almanac

Astronomy

Feb. 12, 2016 Rise Set
Actual Time
Civil Twilight
Nautical Twilight
Astronomical Twilight
Moon
Length of Visible Light
Length of Day
Tomorrow will be .
, % of the Moon is Illuminated

Today's Extremes

State Highs State Lows

Community

WunderPhotos

Upload Photos

1,892,284 photos uploaded!

WunderBlog® & News

Nearby

Air Quality

  Air Quality AQ Index Pollutant
Not available.

Snow Depth

Station Depth Elevation

Earthquake Activity

City Distance Mag. Time & Date
Minimum magnitude displayed is 2.5.

Coastal Water Temperatures

Place Temperature

Stations

Nearby Weather Stations

Station Location Temp. Windchill Dew Point Humidity Wind Precip. Elev Updated Type
                   

Watches & Warnings

There are currently no watches in effect.